KCXO/CXO METAR and TAF weather

Enter ICAO airport designator
Station Type Date Time Source
KCXO METAR 2019/02/20 07:53 UTC NOAA

KCXO 200753Z AUTO 34009KT 4SM BR BKN006 OVC010 07/07 A2989 RMK AO2 RAB06E15B34E48 SLP123 P0001 T00670067


Station Type Date Time Source
KCXO Decoded METAR 2019/02/20 07:53 UTC NOAA

LONE STAR EXECUTIVE AIRPORT, TX, United States (KCXO) 30-21N 95-25W 75M
Feb 20, 2019 - 02:53 AM EST / 2019.02.20 0753 UTC
Wind: from the NNW (340 degrees) at 10 MPH (9 KT):0
Visibility: 4 mile(s):0
Sky conditions: overcast
Weather: mist
Precipitation last hour: 0.01 inches
Temperature: 44.1 F (6.7 C)
Dew Point: 44.1 F (6.7 C)
Relative Humidity: 100%
Pressure (altimeter): 29.89 in. Hg (1012 hPa)
ob: KCXO 200753Z AUTO 34009KT 4SM BR BKN006 OVC010 07/07 A2989 RMK AO2 RAB06E15B34E48 SLP123 P0001 T00670067
cycle: 8

Station Type Date Time Source
KCXO TAF 2019/02/20 07:12 UTC NOAA

TAF
AMD KCXO 200710Z 2007/2106 34006KT 6SM -DZ BR OVC006
FM200900 34007KT P6SM OVC009
FM201300 34008KT P6SM BKN015 BKN045
FM201500 35010KT P6SM FEW030 SCT250
FM201800 34003KT P6SM SKC
FM210300 03003KT P6SM SKC


Example: see airport list